sensor_id;sensor_type;location;lat;lon;timestamp;temperature;humidity
10873;DHT22;34586;53.616;10.032;2023-09-19T00:00:31;16.70;99.90
10873;DHT22;34586;53.616;10.032;2023-09-19T00:02:59;16.70;99.90
10873;DHT22;34586;53.616;10.032;2023-09-19T00:05:26;16.70;99.90
10873;DHT22;34586;53.616;10.032;2023-09-19T00:07:54;16.70;99.90
10873;DHT22;34586;53.616;10.032;2023-09-19T00:10:23;16.70;99.90
10873;DHT22;34586;53.616;10.032;2023-09-19T00:12:54;16.70;99.90
10873;DHT22;34586;53.616;10.032;2023-09-19T00:15:24;16.70;99.90
10873;DHT22;34586;53.616;10.032;2023-09-19T00:17:51;16.70;99.90
10873;DHT22;34586;53.616;10.032;2023-09-19T00:20:20;16.60;99.90
10873;DHT22;34586;53.616;10.032;2023-09-19T00:22:48;16.60;99.90
10873;DHT22;34586;53.616;10.032;2023-09-19T00:25:14;16.60;99.90
10873;DHT22;34586;53.616;10.032;2023-09-19T00:27:41;16.60;99.90
10873;DHT22;34586;53.616;10.032;2023-09-19T00:30:09;16.60;99.90
10873;DHT22;34586;53.616;10.032;2023-09-19T00:32:50;16.60;99.90
10873;DHT22;34586;53.616;10.032;2023-09-19T00:35:18;16.60;99.90
10873;DHT22;34586;53.616;10.032;2023-09-19T00:37:44;16.60;99.90
10873;DHT22;34586;53.616;10.032;2023-09-19T00:40:11;16.60;99.90
10873;DHT22;34586;53.616;10.032;2023-09-19T00:42:41;16.50;99.90
10873;DHT22;34586;53.616;10.032;2023-09-19T00:45:11;16.50;99.90
10873;DHT22;34586;53.616;10.032;2023-09-19T00:47:51;16.50;99.90
10873;DHT22;34586;53.616;10.032;2023-09-19T00:50:18;16.50;99.90
10873;DHT22;34586;53.616;10.032;2023-09-19T00:52:46;16.50;99.90
10873;DHT22;34586;53.616;10.032;2023-09-19T00:55:14;16.50;99.90
10873;DHT22;34586;53.616;10.032;2023-09-19T00:57:41;16.50;99.90
10873;DHT22;34586;53.616;10.032;2023-09-19T01:00:08;16.50;99.90
10873;DHT22;34586;53.616;10.032;2023-09-19T01:02:37;16.90;99.90
10873;DHT22;34586;53.616;10.032;2023-09-19T01:05:03;16.50;99.90
10873;DHT22;34586;53.616;10.032;2023-09-19T01:07:32;16.50;99.90
10873;DHT22;34586;53.616;10.032;2023-09-19T01:10:04;16.60;99.90
10873;DHT22;34586;53.616;10.032;2023-09-19T01:12:46;16.50;99.90
10873;DHT22;34586;53.616;10.032;2023-09-19T01:15:38;16.60;99.90
10873;DHT22;34586;53.616;10.032;2023-09-19T01:18:11;16.60;99.90
10873;DHT22;34586;53.616;10.032;2023-09-19T01:20:53;16.60;99.90
10873;DHT22;34586;53.616;10.032;2023-09-19T01:29:48;16.50;99.90
10873;DHT22;34586;53.616;10.032;2023-09-19T01:32:21;16.50;99.90
10873;DHT22;34586;53.616;10.032;2023-09-19T01:34:52;16.50;99.90
10873;DHT22;34586;53.616;10.032;2023-09-19T01:37:20;16.50;99.90
10873;DHT22;34586;53.616;10.032;2023-09-19T01:39:56;16.50;99.90
10873;DHT22;34586;53.616;10.032;2023-09-19T01:45:45;16.50;99.90
10873;DHT22;34586;53.616;10.032;2023-09-19T01:48:18;16.50;99.90
10873;DHT22;34586;53.616;10.032;2023-09-19T01:51:00;16.50;99.90
10873;DHT22;34586;53.616;10.032;2023-09-19T01:53:50;16.50;99.90
10873;DHT22;34586;53.616;10.032;2023-09-19T01:56:27;16.50;99.90
10873;DHT22;34586;53.616;10.032;2023-09-19T01:58:56;16.50;99.90
10873;DHT22;34586;53.616;10.032;2023-09-19T02:01:26;16.50;99.90
10873;DHT22;34586;53.616;10.032;2023-09-19T02:03:53;16.40;99.90
10873;DHT22;34586;53.616;10.032;2023-09-19T02:06:19;16.40;99.90
10873;DHT22;34586;53.616;10.032;2023-09-19T02:08:46;16.40;99.90
10873;DHT22;34586;53.616;10.032;2023-09-19T02:11:12;16.40;99.90
10873;DHT22;34586;53.616;10.032;2023-09-19T02:13:38;16.30;99.90
10873;DHT22;34586;53.616;10.032;2023-09-19T02:16:05;16.30;99.90
10873;DHT22;34586;53.616;10.032;2023-09-19T02:18:31;16.20;99.90
10873;DHT22;34586;53.616;10.032;2023-09-19T02:21:00;16.30;99.90
10873;DHT22;34586;53.616;10.032;2023-09-19T02:23:26;16.20;99.90
10873;DHT22;34586;53.616;10.032;2023-09-19T02:25:53;16.20;99.90
10873;DHT22;34586;53.616;10.032;2023-09-19T02:28:19;16.20;99.90
10873;DHT22;34586;53.616;10.032;2023-09-19T02:30:48;16.20;99.90
10873;DHT22;34586;53.616;10.032;2023-09-19T02:33:14;16.10;99.90
10873;DHT22;34586;53.616;10.032;2023-09-19T02:35:40;16.10;99.90
10873;DHT22;34586;53.616;10.032;2023-09-19T02:38:06;16.10;99.90
10873;DHT22;34586;53.616;10.032;2023-09-19T02:40:37;16.10;99.90
10873;DHT22;34586;53.616;10.032;2023-09-19T02:43:03;16.10;99.90
10873;DHT22;34586;53.616;10.032;2023-09-19T02:45:29;16.10;99.90
10873;DHT22;34586;53.616;10.032;2023-09-19T02:47:55;16.10;99.90
10873;DHT22;34586;53.616;10.032;2023-09-19T02:50:21;16.20;99.90
10873;DHT22;34586;53.616;10.032;2023-09-19T02:52:47;16.20;99.90
10873;DHT22;34586;53.616;10.032;2023-09-19T02:55:17;16.20;99.90
10873;DHT22;34586;53.616;10.032;2023-09-19T02:57:48;16.20;99.90
10873;DHT22;34586;53.616;10.032;2023-09-19T03:00:16;16.30;99.90
10873;DHT22;34586;53.616;10.032;2023-09-19T03:02:42;16.30;99.90
10873;DHT22;34586;53.616;10.032;2023-09-19T03:05:08;16.30;99.90
10873;DHT22;34586;53.616;10.032;2023-09-19T03:07:37;16.30;99.90
10873;DHT22;34586;53.616;10.032;2023-09-19T03:10:05;16.30;99.90
10873;DHT22;34586;53.616;10.032;2023-09-19T03:12:31;16.30;99.90
10873;DHT22;34586;53.616;10.032;2023-09-19T03:14:57;16.30;99.90
10873;DHT22;34586;53.616;10.032;2023-09-19T03:17:23;16.30;99.90
10873;DHT22;34586;53.616;10.032;2023-09-19T03:19:48;16.30;99.90
10873;DHT22;34586;53.616;10.032;2023-09-19T03:22:21;16.30;99.90
10873;DHT22;34586;53.616;10.032;2023-09-19T03:24:46;16.30;99.90
10873;DHT22;34586;53.616;10.032;2023-09-19T03:27:12;16.30;99.90
10873;DHT22;34586;53.616;10.032;2023-09-19T03:29:39;16.40;99.90
10873;DHT22;34586;53.616;10.032;2023-09-19T03:32:05;16.40;99.90
10873;DHT22;34586;53.616;10.032;2023-09-19T03:34:31;16.40;99.90
10873;DHT22;34586;53.616;10.032;2023-09-19T03:36:56;16.40;99.90
10873;DHT22;34586;53.616;10.032;2023-09-19T03:39:22;16.40;99.90
10873;DHT22;34586;53.616;10.032;2023-09-19T03:41:48;16.30;99.90
10873;DHT22;34586;53.616;10.032;2023-09-19T03:44:15;16.30;99.90
10873;DHT22;34586;53.616;10.032;2023-09-19T03:46:40;16.20;99.90
10873;DHT22;34586;53.616;10.032;2023-09-19T03:49:06;16.20;99.90
10873;DHT22;34586;53.616;10.032;2023-09-19T03:51:32;16.20;99.90
10873;DHT22;34586;53.616;10.032;2023-09-19T03:53:59;16.30;99.90
10873;DHT22;34586;53.616;10.032;2023-09-19T03:56:25;16.30;99.90
10873;DHT22;34586;53.616;10.032;2023-09-19T03:58:51;16.20;99.90
10873;DHT22;34586;53.616;10.032;2023-09-19T04:01:17;16.20;99.90
10873;DHT22;34586;53.616;10.032;2023-09-19T04:03:44;16.20;99.90
10873;DHT22;34586;53.616;10.032;2023-09-19T04:06:16;16.10;99.90
10873;DHT22;34586;53.616;10.032;2023-09-19T04:08:43;15.90;99.90
10873;DHT22;34586;53.616;10.032;2023-09-19T04:11:09;16.00;99.90
10873;DHT22;34586;53.616;10.032;2023-09-19T04:13:36;16.00;99.90
10873;DHT22;34586;53.616;10.032;2023-09-19T04:16:02;15.90;99.90
10873;DHT22;34586;53.616;10.032;2023-09-19T04:18:29;15.90;99.90
10873;DHT22;34586;53.616;10.032;2023-09-19T04:20:58;15.80;99.90
10873;DHT22;34586;53.616;10.032;2023-09-19T04:23:23;15.70;99.90
10873;DHT22;34586;53.616;10.032;2023-09-19T04:25:49;15.60;99.90
10873;DHT22;34586;53.616;10.032;2023-09-19T04:28:15;15.60;99.90
10873;DHT22;34586;53.616;10.032;2023-09-19T04:30:41;15.50;99.90
10873;DHT22;34586;53.616;10.032;2023-09-19T04:33:07;15.50;99.90
10873;DHT22;34586;53.616;10.032;2023-09-19T04:35:33;15.50;99.90
10873;DHT22;34586;53.616;10.032;2023-09-19T04:38:00;15.40;99.90
10873;DHT22;34586;53.616;10.032;2023-09-19T04:40:26;15.30;99.90
10873;DHT22;34586;53.616;10.032;2023-09-19T04:42:58;15.30;99.90
10873;DHT22;34586;53.616;10.032;2023-09-19T04:45:24;15.30;99.90
10873;DHT22;34586;53.616;10.032;2023-09-19T04:47:50;15.30;99.90
10873;DHT22;34586;53.616;10.032;2023-09-19T04:50:16;15.30;99.90
10873;DHT22;34586;53.616;10.032;2023-09-19T04:52:43;15.20;99.90
10873;DHT22;34586;53.616;10.032;2023-09-19T04:55:13;15.20;99.90
10873;DHT22;34586;53.616;10.032;2023-09-19T04:57:45;15.20;99.90
10873;DHT22;34586;53.616;10.032;2023-09-19T05:00:15;15.10;99.90
10873;DHT22;34586;53.616;10.032;2023-09-19T05:02:42;15.10;99.90
10873;DHT22;34586;53.616;10.032;2023-09-19T05:05:09;15.10;99.90
10873;DHT22;34586;53.616;10.032;2023-09-19T05:07:42;15.10;99.90
10873;DHT22;34586;53.616;10.032;2023-09-19T05:10:08;15.10;99.90
10873;DHT22;34586;53.616;10.032;2023-09-19T05:12:35;15.00;99.90
10873;DHT22;34586;53.616;10.032;2023-09-19T05:15:02;15.00;99.90
10873;DHT22;34586;53.616;10.032;2023-09-19T05:17:28;15.00;99.90
10873;DHT22;34586;53.616;10.032;2023-09-19T05:19:54;15.00;99.90
10873;DHT22;34586;53.616;10.032;2023-09-19T05:22:20;15.10;99.90
10873;DHT22;34586;53.616;10.032;2023-09-19T05:24:45;15.00;99.90
10873;DHT22;34586;53.616;10.032;2023-09-19T05:27:17;15.00;99.90
10873;DHT22;34586;53.616;10.032;2023-09-19T05:29:45;14.90;99.90
10873;DHT22;34586;53.616;10.032;2023-09-19T05:32:11;14.90;99.90
10873;DHT22;34586;53.616;10.032;2023-09-19T05:34:37;14.90;99.90
10873;DHT22;34586;53.616;10.032;2023-09-19T05:37:04;14.80;99.90
10873;DHT22;34586;53.616;10.032;2023-09-19T05:39:30;14.80;99.90
10873;DHT22;34586;53.616;10.032;2023-09-19T05:41:56;14.80;99.90
10873;DHT22;34586;53.616;10.032;2023-09-19T05:44:22;14.80;99.90
10873;DHT22;34586;53.616;10.032;2023-09-19T05:46:48;14.80;99.90
10873;DHT22;34586;53.616;10.032;2023-09-19T05:49:15;14.80;99.90
10873;DHT22;34586;53.616;10.032;2023-09-19T05:51:41;14.80;99.90
10873;DHT22;34586;53.616;10.032;2023-09-19T05:54:06;14.80;99.90
10873;DHT22;34586;53.616;10.032;2023-09-19T05:56:32;14.90;99.90
10873;DHT22;34586;53.616;10.032;2023-09-19T05:58:57;14.90;99.90
10873;DHT22;34586;53.616;10.032;2023-09-19T06:01:23;14.90;99.90
10873;DHT22;34586;53.616;10.032;2023-09-19T06:03:49;15.00;99.90
10873;DHT22;34586;53.616;10.032;2023-09-19T06:06:14;15.10;99.90
10873;DHT22;34586;53.616;10.032;2023-09-19T06:08:40;15.20;99.90
10873;DHT22;34586;53.616;10.032;2023-09-19T06:11:05;15.30;99.90
10873;DHT22;34586;53.616;10.032;2023-09-19T06:13:32;15.30;99.90
10873;DHT22;34586;53.616;10.032;2023-09-19T06:15:59;15.40;99.90
10873;DHT22;34586;53.616;10.032;2023-09-19T06:18:25;15.50;99.90
10873;DHT22;34586;53.616;10.032;2023-09-19T06:20:51;15.50;99.90
10873;DHT22;34586;53.616;10.032;2023-09-19T06:23:17;15.60;99.90
10873;DHT22;34586;53.616;10.032;2023-09-19T06:25:45;15.70;99.90
10873;DHT22;34586;53.616;10.032;2023-09-19T06:28:11;15.70;99.90
10873;DHT22;34586;53.616;10.032;2023-09-19T06:30:40;15.80;99.90
10873;DHT22;34586;53.616;10.032;2023-09-19T06:33:06;15.90;99.90
10873;DHT22;34586;53.616;10.032;2023-09-19T06:35:33;15.90;99.90
10873;DHT22;34586;53.616;10.032;2023-09-19T06:37:59;15.90;99.90
10873;DHT22;34586;53.616;10.032;2023-09-19T06:40:28;15.90;99.90
10873;DHT22;34586;53.616;10.032;2023-09-19T06:42:56;16.00;99.90
10873;DHT22;34586;53.616;10.032;2023-09-19T06:45:22;16.00;99.90
10873;DHT22;34586;53.616;10.032;2023-09-19T06:47:51;16.00;99.90
10873;DHT22;34586;53.616;10.032;2023-09-19T06:50:18;16.00;99.90
10873;DHT22;34586;53.616;10.032;2023-09-19T06:52:45;16.00;99.90
10873;DHT22;34586;53.616;10.032;2023-09-19T06:55:14;16.10;99.90
10873;DHT22;34586;53.616;10.032;2023-09-19T06:57:41;16.10;99.90
10873;DHT22;34586;53.616;10.032;2023-09-19T07:00:09;16.20;99.10
10873;DHT22;34586;53.616;10.032;2023-09-19T07:03:22;16.20;99.90
10873;DHT22;34586;53.616;10.032;2023-09-19T07:05:32;16.20;99.90
10873;DHT22;34586;53.616;10.032;2023-09-19T07:08:01;16.20;99.90
10873;DHT22;34586;53.616;10.032;2023-09-19T07:10:28;16.20;99.90
10873;DHT22;34586;53.616;10.032;2023-09-19T07:15:23;16.20;99.90
10873;DHT22;34586;53.616;10.032;2023-09-19T07:17:51;16.30;99.90
10873;DHT22;34586;53.616;10.032;2023-09-19T07:20:17;16.40;99.90
10873;DHT22;34586;53.616;10.032;2023-09-19T07:22:44;16.40;99.90
10873;DHT22;34586;53.616;10.032;2023-09-19T07:25:09;16.40;99.90
10873;DHT22;34586;53.616;10.032;2023-09-19T07:27:35;16.50;99.90
10873;DHT22;34586;53.616;10.032;2023-09-19T07:30:00;16.60;99.90
10873;DHT22;34586;53.616;10.032;2023-09-19T07:32:26;16.60;99.90
10873;DHT22;34586;53.616;10.032;2023-09-19T07:34:51;16.50;99.90
10873;DHT22;34586;53.616;10.032;2023-09-19T07:37:17;16.50;99.90
10873;DHT22;34586;53.616;10.032;2023-09-19T07:39:43;16.60;98.30
10873;DHT22;34586;53.616;10.032;2023-09-19T07:42:10;16.50;99.90
10873;DHT22;34586;53.616;10.032;2023-09-19T07:44:36;16.50;79.60
10873;DHT22;34586;53.616;10.032;2023-09-19T07:47:02;16.50;99.90
10873;DHT22;34586;53.616;10.032;2023-09-19T07:49:28;16.50;99.70
10873;DHT22;34586;53.616;10.032;2023-09-19T07:51:54;16.40;99.90
10873;DHT22;34586;53.616;10.032;2023-09-19T07:54:20;16.30;99.90
10873;DHT22;34586;53.616;10.032;2023-09-19T07:56:46;16.20;99.90
10873;DHT22;34586;53.616;10.032;2023-09-19T07:59:12;16.10;99.90
10873;DHT22;34586;53.616;10.032;2023-09-19T08:01:39;16.00;99.90
10873;DHT22;34586;53.616;10.032;2023-09-19T08:04:07;16.00;99.90
10873;DHT22;34586;53.616;10.032;2023-09-19T08:06:32;15.80;99.90
10873;DHT22;34586;53.616;10.032;2023-09-19T08:08:58;15.70;99.90
10873;DHT22;34586;53.616;10.032;2023-09-19T08:11:26;15.60;99.90
10873;DHT22;34586;53.616;10.032;2023-09-19T08:13:51;15.60;99.90
10873;DHT22;34586;53.616;10.032;2023-09-19T08:16:18;15.60;99.90
10873;DHT22;34586;53.616;10.032;2023-09-19T08:18:48;15.60;99.90
10873;DHT22;34586;53.616;10.032;2023-09-19T08:21:14;15.60;99.90
10873;DHT22;34586;53.616;10.032;2023-09-19T08:23:40;15.80;99.90
10873;DHT22;34586;53.616;10.032;2023-09-19T08:26:06;15.90;99.90
10873;DHT22;34586;53.616;10.032;2023-09-19T08:28:34;16.00;99.90
10873;DHT22;34586;53.616;10.032;2023-09-19T08:31:04;16.10;99.90
10873;DHT22;34586;53.616;10.032;2023-09-19T08:33:34;16.20;99.90
10873;DHT22;34586;53.616;10.032;2023-09-19T08:36:01;16.40;99.90
10873;DHT22;34586;53.616;10.032;2023-09-19T08:38:26;16.30;99.90
10873;DHT22;34586;53.616;10.032;2023-09-19T08:40:59;16.40;99.90
10873;DHT22;34586;53.616;10.032;2023-09-19T08:43:28;16.40;99.90
10873;DHT22;34586;53.616;10.032;2023-09-19T08:46:20;16.50;99.90
10873;DHT22;34586;53.616;10.032;2023-09-19T08:51:29;16.70;99.90
10873;DHT22;34586;53.616;10.032;2023-09-19T08:54:05;16.60;99.90
10873;DHT22;34586;53.616;10.032;2023-09-19T08:56:32;16.60;99.90
10873;DHT22;34586;53.616;10.032;2023-09-19T08:59:05;16.70;99.90
10873;DHT22;34586;53.616;10.032;2023-09-19T09:01:34;16.80;95.70
10873;DHT22;34586;53.616;10.032;2023-09-19T09:04:02;16.80;96.10
10873;DHT22;34586;53.616;10.032;2023-09-19T09:06:28;16.90;66.00
10873;DHT22;34586;53.616;10.032;2023-09-19T09:08:55;17.00;60.30
10873;DHT22;34586;53.616;10.032;2023-09-19T09:11:21;17.00;80.60
10873;DHT22;34586;53.616;10.032;2023-09-19T09:13:50;16.90;51.40
10873;DHT22;34586;53.616;10.032;2023-09-19T09:16:15;17.00;99.90
10873;DHT22;34586;53.616;10.032;2023-09-19T09:18:45;16.90;1.00
10873;DHT22;34586;53.616;10.032;2023-09-19T09:21:11;16.90;29.80
10873;DHT22;34586;53.616;10.032;2023-09-19T09:23:37;17.00;5.70
10873;DHT22;34586;53.616;10.032;2023-09-19T09:26:04;17.00;33.10
10873;DHT22;34586;53.616;10.032;2023-09-19T09:28:32;17.10;15.20
10873;DHT22;34586;53.616;10.032;2023-09-19T09:30:59;17.20;62.70
10873;DHT22;34586;53.616;10.032;2023-09-19T09:33:25;17.30;1.00
10873;DHT22;34586;53.616;10.032;2023-09-19T09:38:23;17.30;1.00
10873;DHT22;34586;53.616;10.032;2023-09-19T09:40:59;17.30;1.00
10873;DHT22;34586;53.616;10.032;2023-09-19T09:43:39;17.50;1.00
10873;DHT22;34586;53.616;10.032;2023-09-19T09:46:11;17.60;1.00
10873;DHT22;34586;53.616;10.032;2023-09-19T09:51:39;17.60;99.90
10873;DHT22;34586;53.616;10.032;2023-09-19T09:54:17;17.70;1.00
10873;DHT22;34586;53.616;10.032;2023-09-19T09:56:59;17.80;1.00
10873;DHT22;34586;53.616;10.032;2023-09-19T09:59:44;17.90;1.00
10873;DHT22;34586;53.616;10.032;2023-09-19T10:02:18;17.90;1.00
10873;DHT22;34586;53.616;10.032;2023-09-19T10:04:48;17.90;99.90
10873;DHT22;34586;53.616;10.032;2023-09-19T10:07:33;17.90;1.00
10873;DHT22;34586;53.616;10.032;2023-09-19T10:10:05;17.90;99.90
10873;DHT22;34586;53.616;10.032;2023-09-19T10:12:48;18.00;99.90
10873;DHT22;34586;53.616;10.032;2023-09-19T10:15:18;18.10;99.90
10873;DHT22;34586;53.616;10.032;2023-09-19T10:17:46;18.20;99.90
10873;DHT22;34586;53.616;10.032;2023-09-19T10:20:14;18.40;99.90
10873;DHT22;34586;53.616;10.032;2023-09-19T10:22:48;18.50;99.90
10873;DHT22;34586;53.616;10.032;2023-09-19T10:25:25;18.60;99.90
10873;DHT22;34586;53.616;10.032;2023-09-19T10:27:54;18.70;1.00
10873;DHT22;34586;53.616;10.032;2023-09-19T10:30:22;18.60;1.00
10873;DHT22;34586;53.616;10.032;2023-09-19T10:33:03;18.70;1.00
10873;DHT22;34586;53.616;10.032;2023-09-19T10:35:29;18.70;1.00
10873;DHT22;34586;53.616;10.032;2023-09-19T10:38:00;18.70;1.00
10873;DHT22;34586;53.616;10.032;2023-09-19T10:40:29;18.70;1.00
10873;DHT22;34586;53.616;10.032;2023-09-19T10:43:05;18.60;1.00
10873;DHT22;34586;53.616;10.032;2023-09-19T10:45:33;18.60;54.80
10873;DHT22;34586;53.616;10.032;2023-09-19T10:48:03;18.60;9.70
10873;DHT22;34586;53.616;10.032;2023-09-19T10:53:08;18.60;1.00
10873;DHT22;34586;53.616;10.032;2023-09-19T10:55:36;18.60;1.00
10873;DHT22;34586;53.616;10.032;2023-09-19T10:58:02;18.70;44.60
10873;DHT22;34586;53.616;10.032;2023-09-19T11:00:54;18.90;37.80
10873;DHT22;34586;53.616;10.032;2023-09-19T11:03:21;18.90;3.60
10873;DHT22;34586;53.616;10.032;2023-09-19T11:06:02;18.90;46.40
10873;DHT22;34586;53.616;10.032;2023-09-19T11:08:31;18.90;28.10
10873;DHT22;34586;53.616;10.032;2023-09-19T11:10:57;19.00;48.70
10873;DHT22;34586;53.616;10.032;2023-09-19T11:13:29;19.10;1.00
10873;DHT22;34586;53.616;10.032;2023-09-19T11:26:48;18.80;1.00
10873;DHT22;34586;53.616;10.032;2023-09-19T11:29:30;18.80;21.00
10873;DHT22;34586;53.616;10.032;2023-09-19T11:31:59;18.80;57.50
10873;DHT22;34586;53.616;10.032;2023-09-19T11:39:37;19.20;1.00
10873;DHT22;34586;53.616;10.032;2023-09-19T11:42:47;19.30;1.00
10873;DHT22;34586;53.616;10.032;2023-09-19T11:48:23;19.20;1.00
10873;DHT22;34586;53.616;10.032;2023-09-19T11:50:51;19.10;1.00
10873;DHT22;34586;53.616;10.032;2023-09-19T11:53:18;19.00;1.00
10873;DHT22;34586;53.616;10.032;2023-09-19T11:55:45;19.00;1.00
10873;DHT22;34586;53.616;10.032;2023-09-19T11:58:14;19.10;1.00
10873;DHT22;34586;53.616;10.032;2023-09-19T12:00:43;19.40;1.00
10873;DHT22;34586;53.616;10.032;2023-09-19T12:03:11;19.50;1.00
10873;DHT22;34586;53.616;10.032;2023-09-19T12:05:37;19.60;1.00
10873;DHT22;34586;53.616;10.032;2023-09-19T12:08:04;19.50;1.00
10873;DHT22;34586;53.616;10.032;2023-09-19T12:10:33;19.50;99.90
10873;DHT22;34586;53.616;10.032;2023-09-19T12:12:59;19.50;1.00
10873;DHT22;34586;53.616;10.032;2023-09-19T12:15:28;19.50;99.90
10873;DHT22;34586;53.616;10.032;2023-09-19T12:17:59;19.40;99.90
10873;DHT22;34586;53.616;10.032;2023-09-19T12:20:25;19.40;1.00
10873;DHT22;34586;53.616;10.032;2023-09-19T12:22:50;19.50;1.00
10873;DHT22;34586;53.616;10.032;2023-09-19T12:25:16;19.70;99.90
10873;DHT22;34586;53.616;10.032;2023-09-19T12:27:49;20.00;99.90
10873;DHT22;34586;53.616;10.032;2023-09-19T12:30:18;20.10;99.90
10873;DHT22;34586;53.616;10.032;2023-09-19T12:32:46;20.10;1.00
10873;DHT22;34586;53.616;10.032;2023-09-19T12:35:32;20.20;99.90
10873;DHT22;34586;53.616;10.032;2023-09-19T12:38:00;20.10;99.90
10873;DHT22;34586;53.616;10.032;2023-09-19T12:40:26;20.70;99.90
10873;DHT22;34586;53.616;10.032;2023-09-19T12:42:54;20.90;99.90
10873;DHT22;34586;53.616;10.032;2023-09-19T12:45:29;21.00;99.90
10873;DHT22;34586;53.616;10.032;2023-09-19T12:53:36;20.50;99.90
10873;DHT22;34586;53.616;10.032;2023-09-19T12:56:06;20.70;1.00
10873;DHT22;34586;53.616;10.032;2023-09-19T12:58:34;20.60;99.90
10873;DHT22;34586;53.616;10.032;2023-09-19T13:01:00;20.70;99.90
10873;DHT22;34586;53.616;10.032;2023-09-19T13:03:28;20.50;99.90
10873;DHT22;34586;53.616;10.032;2023-09-19T13:06:00;20.50;99.90
10873;DHT22;34586;53.616;10.032;2023-09-19T13:08:32;20.50;99.90
10873;DHT22;34586;53.616;10.032;2023-09-19T13:13:36;20.10;96.50
10873;DHT22;34586;53.616;10.032;2023-09-19T13:16:03;20.30;46.20
10873;DHT22;34586;53.616;10.032;2023-09-19T13:18:48;20.50;98.80
10873;DHT22;34586;53.616;10.032;2023-09-19T13:21:17;20.60;99.90
10873;DHT22;34586;53.616;10.032;2023-09-19T13:23:58;20.80;1.00
10873;DHT22;34586;53.616;10.032;2023-09-19T13:26:41;20.80;99.90
10873;DHT22;34586;53.616;10.032;2023-09-19T13:29:06;20.80;58.50
10873;DHT22;34586;53.616;10.032;2023-09-19T13:31:32;20.70;1.00
10873;DHT22;34586;53.616;10.032;2023-09-19T13:33:58;20.80;1.00
10873;DHT22;34586;53.616;10.032;2023-09-19T13:36:23;20.70;99.90
10873;DHT22;34586;53.616;10.032;2023-09-19T13:38:49;21.00;99.90
10873;DHT22;34586;53.616;10.032;2023-09-19T13:41:15;21.10;99.90
10873;DHT22;34586;53.616;10.032;2023-09-19T13:43:40;21.30;1.00
10873;DHT22;34586;53.616;10.032;2023-09-19T13:46:06;21.60;99.90
10873;DHT22;34586;53.616;10.032;2023-09-19T13:48:40;21.70;99.90
10873;DHT22;34586;53.616;10.032;2023-09-19T13:51:06;21.90;99.90
10873;DHT22;34586;53.616;10.032;2023-09-19T13:53:31;21.80;99.90
10873;DHT22;34586;53.616;10.032;2023-09-19T13:55:57;21.30;99.90
10873;DHT22;34586;53.616;10.032;2023-09-19T13:58:22;21.60;99.90
10873;DHT22;34586;53.616;10.032;2023-09-19T14:00:49;21.30;99.90
10873;DHT22;34586;53.616;10.032;2023-09-19T14:03:16;21.40;99.90
10873;DHT22;34586;53.616;10.032;2023-09-19T14:05:41;21.40;99.90
10873;DHT22;34586;53.616;10.032;2023-09-19T14:08:08;21.30;99.90
10873;DHT22;34586;53.616;10.032;2023-09-19T14:10:34;21.10;99.90
10873;DHT22;34586;53.616;10.032;2023-09-19T14:13:00;21.10;99.90
10873;DHT22;34586;53.616;10.032;2023-09-19T14:15:27;20.70;99.90
10873;DHT22;34586;53.616;10.032;2023-09-19T14:17:59;20.70;99.90
10873;DHT22;34586;53.616;10.032;2023-09-19T14:20:26;20.80;99.90
10873;DHT22;34586;53.616;10.032;2023-09-19T14:22:55;20.80;99.90
10873;DHT22;34586;53.616;10.032;2023-09-19T14:25:20;20.80;99.90
10873;DHT22;34586;53.616;10.032;2023-09-19T14:27:47;20.70;99.90
10873;DHT22;34586;53.616;10.032;2023-09-19T14:30:13;20.60;99.90
10873;DHT22;34586;53.616;10.032;2023-09-19T14:32:39;20.60;97.50
10873;DHT22;34586;53.616;10.032;2023-09-19T14:35:06;20.50;1.00
10873;DHT22;34586;53.616;10.032;2023-09-19T14:37:32;20.60;99.90
10873;DHT22;34586;53.616;10.032;2023-09-19T14:39:57;20.60;99.90
10873;DHT22;34586;53.616;10.032;2023-09-19T14:42:23;20.50;99.90
10873;DHT22;34586;53.616;10.032;2023-09-19T14:44:49;20.50;99.90
10873;DHT22;34586;53.616;10.032;2023-09-19T14:47:15;20.60;99.90
10873;DHT22;34586;53.616;10.032;2023-09-19T14:49:42;20.60;99.90
10873;DHT22;34586;53.616;10.032;2023-09-19T14:52:09;20.50;99.90
10873;DHT22;34586;53.616;10.032;2023-09-19T14:54:35;20.30;99.90
10873;DHT22;34586;53.616;10.032;2023-09-19T14:57:03;20.10;99.90
10873;DHT22;34586;53.616;10.032;2023-09-19T14:59:33;20.10;67.90
10873;DHT22;34586;53.616;10.032;2023-09-19T15:01:59;20.00;99.90
10873;DHT22;34586;53.616;10.032;2023-09-19T15:04:26;19.90;99.90
10873;DHT22;34586;53.616;10.032;2023-09-19T15:06:52;19.80;99.90
10873;DHT22;34586;53.616;10.032;2023-09-19T15:09:21;19.80;99.90
10873;DHT22;34586;53.616;10.032;2023-09-19T15:11:54;19.80;99.90
10873;DHT22;34586;53.616;10.032;2023-09-19T15:14:20;19.90;99.90
10873;DHT22;34586;53.616;10.032;2023-09-19T15:16:46;19.80;1.00
10873;DHT22;34586;53.616;10.032;2023-09-19T15:19:13;19.70;1.00
10873;DHT22;34586;53.616;10.032;2023-09-19T15:21:38;19.70;1.00
10873;DHT22;34586;53.616;10.032;2023-09-19T15:24:05;19.60;1.00
10873;DHT22;34586;53.616;10.032;2023-09-19T15:26:35;19.60;1.00
10873;DHT22;34586;53.616;10.032;2023-09-19T15:29:07;19.50;1.00
10873;DHT22;34586;53.616;10.032;2023-09-19T15:31:33;19.50;1.00
10873;DHT22;34586;53.616;10.032;2023-09-19T15:33:59;19.60;1.00
10873;DHT22;34586;53.616;10.032;2023-09-19T15:36:24;19.60;1.00
10873;DHT22;34586;53.616;10.032;2023-09-19T15:41:19;19.70;1.00
10873;DHT22;34586;53.616;10.032;2023-09-19T15:43:46;19.60;1.00
10873;DHT22;34586;53.616;10.032;2023-09-19T15:46:11;19.60;1.00
10873;DHT22;34586;53.616;10.032;2023-09-19T15:48:37;19.60;1.00
10873;DHT22;34586;53.616;10.032;2023-09-19T15:51:03;19.50;1.00
10873;DHT22;34586;53.616;10.032;2023-09-19T15:56:10;19.40;47.50
10873;DHT22;34586;53.616;10.032;2023-09-19T15:58:37;19.40;99.90
10873;DHT22;34586;53.616;10.032;2023-09-19T16:01:05;19.40;52.10
10873;DHT22;34586;53.616;10.032;2023-09-19T16:03:34;19.40;27.50
10873;DHT22;34586;53.616;10.032;2023-09-19T16:06:01;19.40;94.20
10873;DHT22;34586;53.616;10.032;2023-09-19T16:08:26;19.40;1.00
10873;DHT22;34586;53.616;10.032;2023-09-19T16:10:52;19.30;26.00
10873;DHT22;34586;53.616;10.032;2023-09-19T16:13:18;19.30;1.00
10873;DHT22;34586;53.616;10.032;2023-09-19T16:15:43;19.30;56.40
10873;DHT22;34586;53.616;10.032;2023-09-19T16:18:12;19.10;99.90
10873;DHT22;34586;53.616;10.032;2023-09-19T16:20:37;19.10;99.90